Time,TemperatureF,DewpointF,PressureIn,WindDirection,WindDirectionDegrees,WindSpeedMPH,WindSpeedGustMPH,Humidity,HourlyPrecipIn,Conditions,Clouds,dailyrainin,SoftwareType,DateUTC
2013-02-15 00:03:00,27.3,26.8,29.80,WSW,247,0.0,-999.0,98,-99.99,,,0.00,Acu-Link.com,2013-02-15 05:03:00,
2013-02-15 00:18:00,27.0,26.5,29.81,West,270,0.0,-999.0,98,-99.99,,,0.00,Acu-Link.com,2013-02-15 05:18:00,
2013-02-15 00:33:00,26.6,26.1,29.81,SW,225,0.0,-999.0,98,-99.99,,,0.00,Acu-Link.com,2013-02-15 05:33:00,
2013-02-15 00:48:00,26.4,25.9,29.82,SE,135,0.0,-999.0,98,-99.99,,,0.00,Acu-Link.com,2013-02-15 05:48:00,
2013-02-15 01:03:00,26.1,25.6,29.82,West,270,0.0,-999.0,98,-99.99,,,0.00,Acu-Link.com,2013-02-15 06:03:00,
2013-02-15 01:19:00,25.9,25.4,29.82,WNW,292,0.0,-999.0,98,-99.99,,,0.00,Acu-Link.com,2013-02-15 06:19:00,
2013-02-15 01:34:00,25.7,25.2,29.82,WNW,292,0.0,-999.0,98,-99.99,,,0.00,Acu-Link.com,2013-02-15 06:34:00,
2013-02-15 01:49:00,25.5,25.0,29.82,WNW,292,0.0,-999.0,98,-99.99,,,0.00,Acu-Link.com,2013-02-15 06:49:00,
2013-02-15 02:04:00,25.2,24.7,29.82,WNW,292,0.0,-999.0,98,-99.99,,,0.00,Acu-Link.com,2013-02-15 07:04:00,
2013-02-15 02:19:00,25.0,24.5,29.81,WNW,292,0.0,-999.0,98,-99.99,,,0.00,Acu-Link.com,2013-02-15 07:19:00,
2013-02-15 02:35:00,24.8,24.3,29.81,WNW,292,0.0,-999.0,98,-99.99,,,0.00,Acu-Link.com,2013-02-15 07:35:00,
2013-02-15 02:50:00,24.3,23.8,29.80,West,270,0.0,-999.0,98,-99.99,,,0.00,Acu-Link.com,2013-02-15 07:50:00,
2013-02-15 03:05:00,24.3,23.8,29.81,NE,45,0.0,-999.0,98,-99.99,,,0.00,Acu-Link.com,2013-02-15 08:05:00,
2013-02-15 03:20:00,24.1,23.6,29.81,WNW,292,0.0,-999.0,98,-99.99,,,0.00,Acu-Link.com,2013-02-15 08:20:00,
2013-02-15 03:35:00,23.7,23.2,29.81,SW,225,0.0,-999.0,98,-99.99,,,0.00,Acu-Link.com,2013-02-15 08:35:00,
2013-02-15 03:51:00,23.5,23.0,29.81,West,270,0.0,-999.0,98,-99.99,,,0.00,Acu-Link.com,2013-02-15 08:51:00,
2013-02-15 04:17:00,23.5,23.0,29.82,SSW,202,0.0,-999.0,98,-99.99,,,0.00,Acu-Link.com,2013-02-15 09:17:00,
2013-02-15 04:33:00,23.5,23.0,29.81,West,270,0.0,-999.0,98,-99.99,,,0.00,Acu-Link.com,2013-02-15 09:33:00,
2013-02-15 04:48:00,23.2,22.7,29.82,West,270,0.0,-999.0,98,-99.99,,,0.00,Acu-Link.com,2013-02-15 09:48:00,
2013-02-15 05:03:00,23.4,22.9,29.82,NE,45,0.0,-999.0,98,-99.99,,,0.00,Acu-Link.com,2013-02-15 10:03:00,
2013-02-15 05:18:00,23.0,22.5,29.82,NW,315,0.0,-999.0,98,-99.99,,,0.00,Acu-Link.com,2013-02-15 10:18:00,
2013-02-15 05:33:00,23.2,22.7,29.82,SSE,157,0.0,-999.0,98,-99.99,,,0.00,Acu-Link.com,2013-02-15 10:33:00,
2013-02-15 05:48:00,22.8,22.3,29.82,WNW,292,0.0,-999.0,98,-99.99,,,0.00,Acu-Link.com,2013-02-15 10:48:00,
2013-02-15 06:03:00,22.6,22.1,29.82,ENE,67,0.0,-999.0,98,-99.99,,,0.00,Acu-Link.com,2013-02-15 11:03:00,
2013-02-15 06:19:00,22.5,22.0,29.82,SE,135,0.0,-999.0,98,-99.99,,,0.00,Acu-Link.com,2013-02-15 11:19:00,
2013-02-15 06:34:00,22.1,21.6,29.83,SSE,157,0.0,-999.0,98,-99.99,,,0.00,Acu-Link.com,2013-02-15 11:34:00,
2013-02-15 06:49:00,21.9,21.4,29.84,ENE,67,0.0,-999.0,98,-99.99,,,0.00,Acu-Link.com,2013-02-15 11:49:00,
2013-02-15 07:04:00,21.6,21.1,29.84,SSW,202,0.0,-999.0,98,-99.99,,,0.00,Acu-Link.com,2013-02-15 12:04:00,
2013-02-15 07:19:00,21.7,21.2,29.85,NE,45,0.0,-999.0,98,-99.99,,,0.00,Acu-Link.com,2013-02-15 12:19:00,
2013-02-15 07:35:00,21.6,21.1,29.84,SW,225,0.0,-999.0,98,-99.99,,,0.00,Acu-Link.com,2013-02-15 12:35:00,
2013-02-15 07:50:00,21.9,21.4,29.85,SE,135,0.0,-999.0,98,-99.99,,,0.00,Acu-Link.com,2013-02-15 12:50:00,
2013-02-15 08:05:00,23.5,23.0,29.85,NE,45,0.0,-999.0,98,-99.99,,,0.00,Acu-Link.com,2013-02-15 13:05:00,
2013-02-15 08:20:00,24.4,23.9,29.85,WNW,292,0.0,-999.0,98,-99.99,,,0.00,Acu-Link.com,2013-02-15 13:20:00,
2013-02-15 08:35:00,25.5,25.0,29.85,East,90,0.0,-999.0,98,-99.99,,,0.00,Acu-Link.com,2013-02-15 13:35:00,
2013-02-15 08:51:00,27.0,26.5,29.85,ESE,112,0.0,-999.0,98,-99.99,,,0.00,Acu-Link.com,2013-02-15 13:51:00,
2013-02-15 09:06:00,32.5,32.0,29.85,SSE,157,0.0,-999.0,98,-99.99,,,0.00,Acu-Link.com,2013-02-15 14:06:00,
2013-02-15 09:21:00,38.3,37.8,29.84,SE,135,0.0,-999.0,98,-99.99,,,0.00,Acu-Link.com,2013-02-15 14:21:00,
2013-02-15 09:36:00,42.4,41.6,29.84,South,180,2.7,-999.0,97,-99.99,,,0.00,Acu-Link.com,2013-02-15 14:36:00,
2013-02-15 09:51:00,46.2,44.3,29.83,SSE,157,1.7,-999.0,93,-99.99,,,0.00,Acu-Link.com,2013-02-15 14:51:00,
2013-02-15 10:07:00,47.3,44.2,29.83,SE,135,2.7,-999.0,89,-99.99,,,0.00,Acu-Link.com,2013-02-15 15:07:00,
2013-02-15 10:22:00,49.5,45.5,29.83,South,180,3.2,-999.0,86,-99.99,,,0.00,Acu-Link.com,2013-02-15 15:22:00,
2013-02-15 10:37:00,50.9,44.3,29.82,SSE,157,4.2,-999.0,78,-99.99,,,0.00,Acu-Link.com,2013-02-15 15:37:00,
2013-02-15 10:52:00,51.1,43.8,29.82,ESE,112,2.2,-999.0,76,-99.99,,,0.00,Acu-Link.com,2013-02-15 15:52:00,
2013-02-15 11:07:00,53.6,45.9,29.82,South,180,3.7,-999.0,75,-99.99,,,0.00,Acu-Link.com,2013-02-15 16:07:00,
2013-02-15 11:23:00,54.5,42.6,29.82,SSE,157,2.7,-999.0,64,-99.99,,,0.00,Acu-Link.com,2013-02-15 16:23:00,
2013-02-15 11:38:00,55.4,39.5,29.81,NNW,337,2.2,-999.0,55,-99.99,,,0.00,Acu-Link.com,2013-02-15 16:38:00,
2013-02-15 11:53:00,57.2,43.0,29.80,NE,45,2.7,-999.0,59,-99.99,,,0.00,Acu-Link.com,2013-02-15 16:53:00,
2013-02-15 12:08:00,56.3,39.4,29.79,West,270,2.2,-999.0,53,-99.99,,,0.00,Acu-Link.com,2013-02-15 17:08:00,
2013-02-15 12:24:00,57.6,42.9,29.78,ESE,112,1.7,-999.0,58,-99.99,,,0.00,Acu-Link.com,2013-02-15 17:24:00,
2013-02-15 12:39:00,57.0,39.6,29.78,SW,225,2.2,-999.0,52,-99.99,,,0.00,Acu-Link.com,2013-02-15 17:39:00,
2013-02-15 12:54:00,56.5,41.5,29.77,South,180,3.2,-999.0,57,-99.99,,,0.00,Acu-Link.com,2013-02-15 17:54:00,
2013-02-15 13:09:00,57.0,40.5,29.76,NE,45,1.7,-999.0,54,-99.99,,,0.00,Acu-Link.com,2013-02-15 18:09:00,
2013-02-15 13:24:00,57.4,41.4,29.75,NNE,22,1.7,-999.0,55,-99.99,,,0.00,Acu-Link.com,2013-02-15 18:24:00,
2013-02-15 13:40:00,56.7,42.1,29.75,SE,135,0.0,-999.0,58,-99.99,,,0.00,Acu-Link.com,2013-02-15 18:40:00,
2013-02-15 13:55:00,56.1,39.7,29.74,SSE,157,1.7,-999.0,54,-99.99,,,0.00,Acu-Link.com,2013-02-15 18:55:00,
2013-02-15 14:10:00,60.3,42.1,29.73,ENE,67,0.0,-999.0,51,-99.99,,,0.00,Acu-Link.com,2013-02-15 19:10:00,
2013-02-15 14:25:00,57.4,38.4,29.72,ENE,67,2.2,-999.0,49,-99.99,,,0.00,Acu-Link.com,2013-02-15 19:25:00,
2013-02-15 14:40:00,56.3,38.4,29.71,SE,135,2.2,-999.0,51,-99.99,,,0.00,Acu-Link.com,2013-02-15 19:40:00,
2013-02-15 14:56:00,55.6,37.3,29.71,South,180,2.7,-999.0,50,-99.99,,,0.00,Acu-Link.com,2013-02-15 19:56:00,
2013-02-15 15:11:00,55.8,37.4,29.70,SE,135,0.0,-999.0,50,-99.99,,,0.00,Acu-Link.com,2013-02-15 20:11:00,
2013-02-15 15:26:00,55.8,37.4,29.69,SSE,157,1.7,-999.0,50,-99.99,,,0.00,Acu-Link.com,2013-02-15 20:26:00,
2013-02-15 15:41:00,55.4,37.6,29.69,ESE,112,2.2,-999.0,51,-99.99,,,0.00,Acu-Link.com,2013-02-15 20:41:00,
2013-02-15 15:56:00,54.9,37.1,29.69,SSE,157,1.7,-999.0,51,-99.99,,,0.00,Acu-Link.com,2013-02-15 20:56:00,
2013-02-15 16:12:00,54.5,38.7,29.69,South,180,0.0,-999.0,55,-99.99,,,0.00,Acu-Link.com,2013-02-15 21:12:00,
2013-02-15 16:27:00,54.0,38.2,29.69,ENE,67,1.1,-999.0,55,-99.99,,,0.00,Acu-Link.com,2013-02-15 21:27:00,
2013-02-15 16:42:00,53.8,37.1,29.69,NE,45,2.2,-999.0,53,-99.99,,,0.00,Acu-Link.com,2013-02-15 21:42:00,
2013-02-15 16:57:00,54.5,37.2,29.69,ENE,67,1.7,-999.0,52,-99.99,,,0.00,Acu-Link.com,2013-02-15 21:57:00,
2013-02-15 17:12:00,54.0,36.8,29.69,South,180,3.7,-999.0,52,-99.99,,,0.00,Acu-Link.com,2013-02-15 22:12:00,
2013-02-15 17:28:00,52.7,37.4,29.70,ESE,112,1.7,-999.0,56,-99.99,,,0.00,Acu-Link.com,2013-02-15 22:28:00,
2013-02-15 17:43:00,50.7,40.9,29.69,NE,45,0.0,-999.0,69,-99.99,,,0.00,Acu-Link.com,2013-02-15 22:43:00,
2013-02-15 17:58:00,49.6,42.0,29.70,South,180,2.7,-999.0,75,-99.99,,,0.00,Acu-Link.com,2013-02-15 22:58:00,
2013-02-15 18:13:00,47.7,44.0,29.71,WNW,292,2.7,-999.0,87,-99.99,,,0.00,Acu-Link.com,2013-02-15 23:13:00,
2013-02-15 18:29:00,46.0,45.2,29.72,ESE,112,3.2,-999.0,97,-99.99,,,0.00,Acu-Link.com,2013-02-15 23:29:00,
2013-02-15 18:44:00,45.3,44.8,29.73,South,180,4.2,-999.0,98,-99.99,,,0.00,Acu-Link.com,2013-02-15 23:44:00,
2013-02-15 18:59:00,44.6,44.1,29.73,ESE,112,3.7,-999.0,98,-99.99,,,0.00,Acu-Link.com,2013-02-15 23:59:00,
2013-02-15 19:14:00,43.2,42.7,29.73,East,90,4.7,-999.0,98,-99.99,,,0.00,Acu-Link.com,2013-02-16 00:14:00,
2013-02-15 19:29:00,42.3,41.8,29.73,ESE,112,4.7,-999.0,98,-99.99,,,0.00,Acu-Link.com,2013-02-16 00:29:00,
2013-02-15 19:45:00,41.5,41.0,29.73,ESE,112,3.2,-999.0,98,-99.99,,,0.00,Acu-Link.com,2013-02-16 00:45:00,
2013-02-15 20:00:00,41.2,40.7,29.73,East,90,5.3,-999.0,98,-99.99,,,0.00,Acu-Link.com,2013-02-16 01:00:00,
2013-02-15 20:15:00,40.6,40.1,29.73,NNE,22,4.2,-999.0,98,-99.99,,,0.00,Acu-Link.com,2013-02-16 01:15:00,
2013-02-15 20:30:00,39.7,39.2,29.74,ESE,112,8.3,-999.0,98,-99.99,,,0.00,Acu-Link.com,2013-02-16 01:30:00,
2013-02-15 20:45:00,39.0,38.5,29.74,NW,315,3.2,-999.0,98,-99.99,,,0.00,Acu-Link.com,2013-02-16 01:45:00,
2013-02-15 21:00:00,38.3,37.8,29.74,SSE,157,2.7,-999.0,98,-99.99,,,0.00,Acu-Link.com,2013-02-16 02:00:00,
2013-02-15 21:16:00,37.9,37.4,29.74,ENE,67,5.8,-999.0,98,-99.99,,,0.00,Acu-Link.com,2013-02-16 02:16:00,
2013-02-15 21:31:00,37.6,37.1,29.74,South,180,4.2,-999.0,98,-99.99,,,0.00,Acu-Link.com,2013-02-16 02:31:00,
2013-02-15 21:46:00,37.4,36.9,29.75,NE,45,3.7,-999.0,98,-99.99,,,0.00,Acu-Link.com,2013-02-16 02:46:00,
2013-02-15 22:01:00,36.7,36.2,29.75,South,180,3.7,-999.0,98,-99.99,,,0.00,Acu-Link.com,2013-02-16 03:01:00,
2013-02-15 22:16:00,36.1,35.6,29.75,ESE,112,2.7,-999.0,98,-99.99,,,0.00,Acu-Link.com,2013-02-16 03:16:00,
2013-02-15 22:32:00,35.6,35.1,29.75,SW,225,3.2,-999.0,98,-99.99,,,0.00,Acu-Link.com,2013-02-16 03:32:00,
2013-02-15 22:47:00,35.1,34.6,29.75,SSE,157,1.7,-999.0,98,-99.99,,,0.00,Acu-Link.com,2013-02-16 03:47:00,
2013-02-15 23:02:00,34.9,34.4,29.75,East,90,5.8,-999.0,98,-99.99,,,0.00,Acu-Link.com,2013-02-16 04:02:00,
2013-02-15 23:17:00,34.7,34.2,29.75,SE,135,8.3,-999.0,98,-99.99,,,0.00,Acu-Link.com,2013-02-16 04:17:00,
2013-02-15 23:33:00,34.2,33.7,29.74,East,90,6.8,-999.0,98,-99.99,,,0.00,Acu-Link.com,2013-02-16 04:33:00,
2013-02-15 23:48:00,33.8,33.3,29.74,SSE,157,4.7,-999.0,98,-99.99,,,0.00,Acu-Link.com,2013-02-16 04:48:00,